createdAt,value
2024-02-28T00:01:34.362Z,5.17
2024-02-28T00:04:02.718Z,5.16
2024-02-28T00:06:31.433Z,5.16
2024-02-28T00:09:00.093Z,5.14
2024-02-28T00:11:28.924Z,5.16
2024-02-28T00:13:57.248Z,5.17
2024-02-28T00:16:25.325Z,5.18
2024-02-28T00:18:53.710Z,5.20
2024-02-28T00:21:22.251Z,5.23
2024-02-28T00:23:50.652Z,5.22
2024-02-28T00:26:18.830Z,5.18
2024-02-28T00:28:46.944Z,5.18
2024-02-28T00:31:15.175Z,5.16
2024-02-28T00:33:43.351Z,5.14
2024-02-28T00:36:11.878Z,5.10
2024-02-28T00:38:40.429Z,5.09
2024-02-28T00:41:09.043Z,5.05
2024-02-28T00:43:37.134Z,5.02
2024-02-28T00:46:05.682Z,4.92
2024-02-28T00:48:33.890Z,4.81
2024-02-28T00:51:02.082Z,4.76
2024-02-28T00:53:30.257Z,4.71
2024-02-28T00:55:58.554Z,4.61
2024-02-28T00:58:29.190Z,4.55
2024-02-28T01:00:58.811Z,4.49
2024-02-28T01:03:27.310Z,4.43
2024-02-28T01:05:55.650Z,4.38
2024-02-28T01:08:23.920Z,4.31
2024-02-28T01:10:52.103Z,4.26
2024-02-28T01:13:20.352Z,4.21
2024-02-28T01:15:48.581Z,4.17
2024-02-28T01:18:17.185Z,4.15
2024-02-28T01:20:45.915Z,4.12
2024-02-28T01:23:14.063Z,4.07
2024-02-28T01:25:42.363Z,4.03
2024-02-28T01:28:10.635Z,4.01
2024-02-28T01:30:38.942Z,3.99
2024-02-28T01:33:07.531Z,3.99
2024-02-28T01:35:35.701Z,3.95
2024-02-28T01:38:04.058Z,3.93
2024-02-28T01:40:32.216Z,3.94
2024-02-28T01:43:09.818Z,3.91
2024-02-28T01:45:37.982Z,3.91
2024-02-28T01:48:11.477Z,3.93
2024-02-28T01:50:40.455Z,3.98
2024-02-28T01:53:10.543Z,3.99
2024-02-28T01:55:39.606Z,4.02
2024-02-28T01:58:08.276Z,4.03
2024-02-28T02:00:38.764Z,4.03
2024-02-28T02:03:07.411Z,4.03
2024-02-28T02:05:35.673Z,4.07
2024-02-28T02:08:04.227Z,4.14
2024-02-28T02:10:32.703Z,4.18
2024-02-28T02:13:08.022Z,4.22
2024-02-28T02:15:36.301Z,4.21
2024-02-28T02:18:04.872Z,4.20
2024-02-28T02:20:36.998Z,4.19
2024-02-28T02:23:05.485Z,4.10
2024-02-28T02:25:33.762Z,4.07
2024-02-28T02:28:01.885Z,4.01
2024-02-28T02:30:30.255Z,3.89
2024-02-28T02:32:58.544Z,3.84
2024-02-28T02:35:26.662Z,3.80
2024-02-28T02:37:54.759Z,3.75
2024-02-28T02:40:24.269Z,3.73
2024-02-28T02:42:52.428Z,3.69
2024-02-28T02:45:20.912Z,3.68
2024-02-28T02:47:49.111Z,3.63
2024-02-28T02:50:17.438Z,3.60
2024-02-28T02:52:45.714Z,3.53
2024-02-28T02:55:13.998Z,3.52
2024-02-28T02:57:42.505Z,3.47
2024-02-28T03:00:11.690Z,3.36
2024-02-28T03:02:41.110Z,3.35
2024-02-28T03:05:10.193Z,3.33
2024-02-28T03:07:38.436Z,3.32
2024-02-28T03:10:07.791Z,3.26
2024-02-28T03:12:36.689Z,3.22
2024-02-28T03:15:05.179Z,3.21
2024-02-28T03:17:33.492Z,3.19
2024-02-28T03:20:01.647Z,3.15
2024-02-28T03:22:30.063Z,3.11
2024-02-28T03:24:58.235Z,3.09
2024-02-28T03:27:26.496Z,3.08
2024-02-28T03:29:54.668Z,3.08
2024-02-28T03:32:22.938Z,3.06
2024-02-28T03:34:51.178Z,3.05
2024-02-28T03:37:19.392Z,3.03
2024-02-28T03:39:47.711Z,3.04
2024-02-28T03:42:16.088Z,3.04
2024-02-28T03:44:44.933Z,3.07
2024-02-28T03:47:13.204Z,3.11
2024-02-28T03:49:41.323Z,3.12
2024-02-28T03:52:09.599Z,3.14
2024-02-28T03:54:37.985Z,3.14
2024-02-28T03:57:06.271Z,3.07
2024-02-28T03:59:34.467Z,3.06
2024-02-28T04:02:02.698Z,3.05
2024-02-28T04:04:30.816Z,3.05
2024-02-28T04:06:59.058Z,3.06
2024-02-28T04:09:27.517Z,3.03
2024-02-28T04:11:55.694Z,2.96
2024-02-28T04:14:23.822Z,2.93
2024-02-28T04:16:52.033Z,2.91
2024-02-28T04:19:20.158Z,2.89
2024-02-28T04:21:48.423Z,2.92
2024-02-28T04:24:17.941Z,2.93
2024-02-28T04:26:46.344Z,2.91
2024-02-28T04:29:15.776Z,2.89
2024-02-28T04:31:44.058Z,2.87
2024-02-28T04:34:12.162Z,2.89
2024-02-28T04:36:40.611Z,2.79
2024-02-28T04:39:09.208Z,2.72
2024-02-28T04:41:37.644Z,2.69
2024-02-28T04:44:05.889Z,2.66
2024-02-28T04:46:35.914Z,2.67
2024-02-28T04:49:04.181Z,2.64
2024-02-28T04:51:32.430Z,2.64
2024-02-28T04:54:00.642Z,2.64
2024-02-28T04:56:29.052Z,2.61
2024-02-28T04:58:57.931Z,2.56
2024-02-28T05:01:26.170Z,2.57
2024-02-28T05:03:54.511Z,2.53
2024-02-28T05:06:22.888Z,2.50
2024-02-28T05:08:51.157Z,2.49
2024-02-28T05:11:19.476Z,2.41
2024-02-28T05:13:47.881Z,2.39
2024-02-28T05:16:17.483Z,2.43
2024-02-28T05:18:46.437Z,2.48
2024-02-28T05:21:15.366Z,2.54
2024-02-28T05:23:43.809Z,2.63
2024-02-28T05:26:11.956Z,2.79
2024-02-28T05:28:40.689Z,3.30
2024-02-28T05:31:26.303Z,3.77
2024-02-28T05:33:57.922Z,4.04
2024-02-28T05:36:28.549Z,4.36
2024-02-28T05:38:58.845Z,4.81
2024-02-28T05:41:27.091Z,5.69
2024-02-28T05:43:55.265Z,6.36
2024-02-28T05:46:23.746Z,6.60
2024-02-28T05:48:52.076Z,7.02
2024-02-28T05:51:20.938Z,7.92
2024-02-28T05:53:49.289Z,8.84
2024-02-28T05:56:21.333Z,9.68
2024-02-28T05:58:50.216Z,10.47
2024-02-28T06:01:20.046Z,10.99
2024-02-28T06:03:52.192Z,11.55
2024-02-28T06:06:20.501Z,12.32
2024-02-28T06:08:48.795Z,12.45
2024-02-28T06:11:17.946Z,12.95
2024-02-28T06:13:46.159Z,13.93
2024-02-28T06:16:19.343Z,14.01
2024-02-28T06:18:47.713Z,14.91
2024-02-28T06:21:16.192Z,15.55
2024-02-28T06:23:44.599Z,15.94
2024-02-28T06:26:18.089Z,16.95
2024-02-28T06:28:47.175Z,16.80
2024-02-28T06:31:19.074Z,17.26
2024-02-28T06:33:47.445Z,16.66
2024-02-28T06:36:15.885Z,17.32
2024-02-28T06:38:44.280Z,18.14
2024-02-28T06:41:12.479Z,18.59
2024-02-28T06:43:40.787Z,18.21
2024-02-28T06:46:09.130Z,19.09
2024-02-28T06:48:37.374Z,18.82
2024-02-28T06:51:05.751Z,19.28
2024-02-28T06:53:33.982Z,18.81
2024-02-28T06:56:04.078Z,18.29
2024-02-28T06:58:32.357Z,19.04
2024-02-28T07:01:02.630Z,18.86
2024-02-28T07:03:31.335Z,19.40
2024-02-28T07:06:00.095Z,18.72
2024-02-28T07:08:28.388Z,19.31
2024-02-28T07:10:56.552Z,18.98
2024-02-28T07:13:25.222Z,18.20
2024-02-28T07:15:55.782Z,18.66
2024-02-28T07:18:27.049Z,18.29
2024-02-28T07:20:55.882Z,19.65
2024-02-28T07:23:24.014Z,20.14
2024-02-28T07:25:52.294Z,19.72
2024-02-28T07:28:20.418Z,19.52
2024-02-28T07:30:49.743Z,19.36
2024-02-28T07:33:18.267Z,19.05
2024-02-28T07:35:51.244Z,19.72
2024-02-28T07:38:22.432Z,19.94
2024-02-28T07:40:51.219Z,20.02
2024-02-28T07:43:19.378Z,19.32
2024-02-28T07:45:47.575Z,19.98
2024-02-28T07:48:16.188Z,20.03
2024-02-28T07:50:46.042Z,20.54
2024-02-28T07:53:14.652Z,20.53
2024-02-28T07:55:43.015Z,20.78
2024-02-28T07:58:11.195Z,20.96
2024-02-28T08:00:39.562Z,20.38
2024-02-28T08:03:08.599Z,19.84
2024-02-28T08:05:40.501Z,20.22
2024-02-28T08:08:09.279Z,20.33
2024-02-28T08:10:39.313Z,19.48
2024-02-28T08:13:09.056Z,19.71
2024-02-28T08:15:37.270Z,20.00
2024-02-28T08:18:05.678Z,20.04
2024-02-28T08:20:34.099Z,20.21
2024-02-28T08:23:02.360Z,20.17
2024-02-28T08:25:30.559Z,20.80
2024-02-28T08:27:58.872Z,20.41
2024-02-28T08:30:27.086Z,20.61
2024-02-28T08:32:55.405Z,20.84
2024-02-28T08:35:25.182Z,21.09
2024-02-28T08:37:54.277Z,20.55
2024-02-28T08:40:22.956Z,20.90
2024-02-28T08:42:54.679Z,20.47
2024-02-28T08:45:24.175Z,19.81
2024-02-28T08:47:53.201Z,19.53
2024-02-28T08:50:21.510Z,18.80
2024-02-28T08:52:49.668Z,18.20
2024-02-28T08:55:20.055Z,18.25
2024-02-28T08:57:48.328Z,17.63
2024-02-28T09:00:16.933Z,16.45
2024-02-28T09:02:45.708Z,16.49
2024-02-28T09:05:14.028Z,16.63
2024-02-28T09:07:42.189Z,16.23
2024-02-28T09:10:10.869Z,15.76
2024-02-28T09:12:39.468Z,15.38
2024-02-28T09:15:08.237Z,15.69
2024-02-28T09:17:36.588Z,15.41
2024-02-28T09:20:07.976Z,15.37
2024-02-28T09:22:36.689Z,15.14
2024-02-28T09:25:05.680Z,15.06
2024-02-28T09:27:34.459Z,14.76
2024-02-28T09:30:03.991Z,14.33
2024-02-28T09:32:32.320Z,14.33
2024-02-28T09:35:00.666Z,14.38
2024-02-28T09:37:30.421Z,13.99
2024-02-28T09:39:59.797Z,14.15
2024-02-28T09:42:29.427Z,14.39
2024-02-28T09:45:02.367Z,13.66
2024-02-28T09:47:31.473Z,13.56
2024-02-28T09:50:00.044Z,13.29
2024-02-28T09:52:31.366Z,13.40
2024-02-28T09:54:59.655Z,13.55
2024-02-28T09:57:30.086Z,13.04
2024-02-28T10:00:01.734Z,13.16
2024-02-28T10:02:35.243Z,13.20
2024-02-28T10:05:06.092Z,13.26
2024-02-28T10:07:34.255Z,13.62
2024-02-28T10:10:02.495Z,13.58
2024-02-28T10:12:30.735Z,13.89
2024-02-28T10:15:01.757Z,13.98
2024-02-28T10:17:30.379Z,14.09
2024-02-28T10:20:00.748Z,13.88
2024-02-28T10:22:29.121Z,13.64
2024-02-28T10:25:02.188Z,13.47
2024-02-28T10:27:33.815Z,13.43
2024-02-28T10:30:06.075Z,13.40
2024-02-28T10:32:37.532Z,13.40
2024-02-28T10:35:11.114Z,13.40
2024-02-28T10:37:41.562Z,13.33
2024-02-28T10:40:11.680Z,13.30
2024-02-28T10:42:43.757Z,13.08
2024-02-28T10:45:21.077Z,12.85
2024-02-28T10:47:58.410Z,12.64
2024-02-28T10:50:26.631Z,12.44
2024-02-28T10:53:02.028Z,12.32
2024-02-28T10:55:41.652Z,12.26
2024-02-28T10:58:14.147Z,12.14
2024-02-28T11:00:48.442Z,12.29
2024-02-28T11:03:18.962Z,12.33
2024-02-28T11:05:47.806Z,12.36
2024-02-28T11:08:24.104Z,12.28
2024-02-28T11:10:57.275Z,12.10
2024-02-28T11:13:27.510Z,11.98
2024-02-28T11:15:58.970Z,12.05
2024-02-28T11:18:27.212Z,11.86
2024-02-28T11:20:56.374Z,11.72
2024-02-28T11:23:25.226Z,11.68
2024-02-28T11:25:54.447Z,11.78
2024-02-28T11:28:25.481Z,11.69
2024-02-28T11:30:53.774Z,11.57
2024-02-28T11:33:22.198Z,11.49
2024-02-28T11:35:58.633Z,11.48
2024-02-28T11:38:27.858Z,11.48
2024-02-28T11:40:56.883Z,11.49
2024-02-28T11:43:26.988Z,11.38
2024-02-28T11:45:56.793Z,11.43
2024-02-28T11:48:27.011Z,11.39
2024-02-28T11:50:55.983Z,11.36
2024-02-28T11:53:28.041Z,11.31
2024-02-28T11:55:57.020Z,11.26
2024-02-28T11:58:25.188Z,11.22
2024-02-28T12:00:53.793Z,11.16
2024-02-28T12:03:26.300Z,11.12
2024-02-28T12:05:56.277Z,11.02
2024-02-28T12:08:26.692Z,10.96
2024-02-28T12:10:56.879Z,10.85
2024-02-28T12:13:25.063Z,10.94
2024-02-28T12:15:53.206Z,10.93
2024-02-28T12:18:21.445Z,10.92
2024-02-28T12:20:51.357Z,10.92
2024-02-28T12:23:19.843Z,10.89
2024-02-28T12:25:48.250Z,10.82
2024-02-28T12:28:17.087Z,10.82
2024-02-28T12:30:45.679Z,10.84
2024-02-28T12:33:14.056Z,10.81
2024-02-28T12:35:43.748Z,10.82
2024-02-28T12:38:12.329Z,10.80
2024-02-28T12:40:40.747Z,10.89
2024-02-28T12:43:10.120Z,10.92
2024-02-28T12:45:38.841Z,10.95
2024-02-28T12:48:08.376Z,10.98
2024-02-28T12:50:37.100Z,11.04
2024-02-28T12:53:05.565Z,11.11
2024-02-28T12:55:33.776Z,11.18
2024-02-28T12:58:06.034Z,11.28
2024-02-28T13:00:34.713Z,11.31
2024-02-28T13:03:04.610Z,11.28
2024-02-28T13:05:33.284Z,11.31
2024-02-28T13:08:02.463Z,11.40
2024-02-28T13:10:31.721Z,11.43
2024-02-28T13:13:00.002Z,11.44
2024-02-28T13:15:28.412Z,11.42
2024-02-28T13:17:56.869Z,11.41
2024-02-28T13:20:25.784Z,11.44
2024-02-28T13:22:54.867Z,11.43
2024-02-28T13:25:23.274Z,11.41
2024-02-28T13:27:51.735Z,11.41
2024-02-28T13:30:20.657Z,11.41
2024-02-28T13:32:50.425Z,11.37
2024-02-28T13:35:19.005Z,11.38
2024-02-28T13:37:47.292Z,11.34
2024-02-28T13:40:15.678Z,11.31
2024-02-28T13:42:44.222Z,11.25
2024-02-28T13:45:13.163Z,11.24
2024-02-28T13:47:41.421Z,11.23
2024-02-28T13:50:11.107Z,11.24
2024-02-28T13:52:39.212Z,11.25
2024-02-28T13:55:09.562Z,11.27
2024-02-28T13:57:37.787Z,11.26
2024-02-28T14:00:08.144Z,11.26
2024-02-28T14:02:39.345Z,11.23
2024-02-28T14:05:09.027Z,11.25
2024-02-28T14:07:38.439Z,11.25
2024-02-28T14:10:06.978Z,11.25
2024-02-28T14:12:35.160Z,11.24
2024-02-28T14:15:03.969Z,11.23
2024-02-28T14:17:33.037Z,11.20
2024-02-28T14:20:01.676Z,11.22
2024-02-28T14:22:29.854Z,11.20
2024-02-28T14:24:58.065Z,11.19
2024-02-28T14:27:31.423Z,11.12
2024-02-28T14:29:59.780Z,11.12
2024-02-28T14:32:27.965Z,11.10
2024-02-28T14:34:56.172Z,11.07
2024-02-28T14:37:24.414Z,11.04
2024-02-28T14:39:52.943Z,10.99
2024-02-28T14:42:21.363Z,10.93
2024-02-28T14:44:49.498Z,10.87
2024-02-28T14:47:17.667Z,10.84
2024-02-28T14:49:45.805Z,10.82
2024-02-28T14:52:14.983Z,10.80
2024-02-28T14:54:45.630Z,10.78
2024-02-28T14:57:14.908Z,10.73
2024-02-28T14:59:43.585Z,10.76
2024-02-28T15:02:13.034Z,10.76
2024-02-28T15:04:41.241Z,10.76
2024-02-28T15:07:09.636Z,10.74
2024-02-28T15:09:40.915Z,10.75
2024-02-28T15:12:10.205Z,10.78
2024-02-28T15:14:38.420Z,10.77
2024-02-28T15:17:06.634Z,10.77
2024-02-28T15:19:35.018Z,10.76
2024-02-28T15:22:03.225Z,10.75
2024-02-28T15:24:31.633Z,10.73
2024-02-28T15:27:00.483Z,10.68
2024-02-28T15:29:29.977Z,10.67
2024-02-28T15:31:58.087Z,10.63
2024-02-28T15:34:26.240Z,10.59
2024-02-28T15:36:54.569Z,10.57
2024-02-28T15:39:22.994Z,10.51
2024-02-28T15:41:53.299Z,10.47
2024-02-28T15:44:21.503Z,10.42
2024-02-28T15:46:49.713Z,10.36
2024-02-28T15:49:24.775Z,10.30
2024-02-28T15:51:57.533Z,10.21
2024-02-28T15:54:25.908Z,10.14
2024-02-28T15:56:54.190Z,10.07
2024-02-28T15:59:22.522Z,10.01
2024-02-28T16:01:51.124Z,9.93
2024-02-28T16:04:19.331Z,9.84
2024-02-28T16:06:47.618Z,9.76
2024-02-28T16:09:16.360Z,9.66
2024-02-28T16:11:45.086Z,9.56
2024-02-28T16:14:14.846Z,9.46
2024-02-28T16:16:43.088Z,9.33
2024-02-28T16:19:18.147Z,9.20
2024-02-28T16:21:53.324Z,9.06
2024-02-28T16:24:21.721Z,8.97
2024-02-28T16:26:50.104Z,8.87
2024-02-28T16:29:18.351Z,8.75
2024-02-28T16:31:50.567Z,8.67
2024-02-28T16:34:20.932Z,8.57
2024-02-28T16:36:49.757Z,8.52
2024-02-28T16:39:20.534Z,8.44
2024-02-28T16:41:48.800Z,8.35
2024-02-28T16:44:17.054Z,8.27
2024-02-28T16:46:45.313Z,8.19
2024-02-28T16:49:13.518Z,8.13
2024-02-28T16:51:43.132Z,8.05
2024-02-28T16:54:13.434Z,7.95
2024-02-28T16:56:41.721Z,7.87
2024-02-28T16:59:11.155Z,7.80
2024-02-28T17:01:39.463Z,7.70
2024-02-28T17:04:07.932Z,7.56
2024-02-28T17:06:36.479Z,7.44
2024-02-28T17:09:04.827Z,7.30
2024-02-28T17:11:32.985Z,7.17
2024-02-28T17:14:01.676Z,7.08
2024-02-28T17:16:29.990Z,6.98
2024-02-28T17:18:58.587Z,6.89
2024-02-28T17:21:26.820Z,6.80
2024-02-28T17:23:55.055Z,6.71
2024-02-28T17:26:23.423Z,6.62
2024-02-28T17:28:51.962Z,6.54
2024-02-28T17:31:20.242Z,6.47
2024-02-28T17:33:49.066Z,6.41
2024-02-28T17:36:18.843Z,6.36
2024-02-28T17:38:47.314Z,6.33
2024-02-28T17:41:17.069Z,6.27
2024-02-28T17:43:46.166Z,6.22
2024-02-28T17:46:17.324Z,6.16
2024-02-28T17:48:45.790Z,6.06
2024-02-28T17:51:14.139Z,6.00
2024-02-28T17:53:43.725Z,5.96
2024-02-28T17:56:12.840Z,5.91
2024-02-28T17:58:41.315Z,5.86
2024-02-28T18:01:09.554Z,5.84
2024-02-28T18:03:37.985Z,5.80
2024-02-28T18:06:06.200Z,5.77
2024-02-28T18:08:35.536Z,5.70
2024-02-28T18:11:05.610Z,5.61
2024-02-28T18:13:34.433Z,5.50
2024-02-28T18:16:02.712Z,5.46
2024-02-28T18:18:34.096Z,5.43
2024-02-28T18:21:02.472Z,5.33
2024-02-28T18:23:34.720Z,5.29
2024-02-28T18:26:04.443Z,5.20
2024-02-28T18:28:38.004Z,5.13
2024-02-28T18:31:09.274Z,5.09
2024-02-28T18:33:37.735Z,5.09
2024-02-28T18:36:06.328Z,5.10
2024-02-28T18:38:34.562Z,5.12
2024-02-28T18:41:03.195Z,5.05
2024-02-28T18:43:32.285Z,4.97
2024-02-28T18:46:03.005Z,4.93
2024-02-28T18:48:31.296Z,4.94
2024-02-28T18:50:59.460Z,4.98
2024-02-28T18:53:27.945Z,5.00
2024-02-28T18:55:56.070Z,5.01
2024-02-28T18:58:24.242Z,5.08
2024-02-28T19:00:52.952Z,5.08
2024-02-28T19:03:21.464Z,5.02
2024-02-28T19:05:49.936Z,4.98
2024-02-28T19:08:18.427Z,4.98
2024-02-28T19:10:46.802Z,5.00
2024-02-28T19:13:14.995Z,4.96
2024-02-28T19:15:43.317Z,4.86
2024-02-28T19:18:11.511Z,4.75
2024-02-28T19:20:39.765Z,4.66
2024-02-28T19:23:08.025Z,4.60
2024-02-28T19:25:36.206Z,4.50
2024-02-28T19:28:04.945Z,4.44
2024-02-28T19:30:33.250Z,4.39
2024-02-28T19:33:01.720Z,4.32
2024-02-28T19:35:30.167Z,4.27
2024-02-28T19:37:58.632Z,4.21
2024-02-28T19:40:26.956Z,4.15
2024-02-28T19:42:56.949Z,4.09
2024-02-28T19:45:25.268Z,4.00
2024-02-28T19:47:53.583Z,3.92
2024-02-28T19:50:25.066Z,3.87
2024-02-28T19:52:53.544Z,3.86
2024-02-28T19:55:23.237Z,3.82
2024-02-28T19:57:51.449Z,3.77
2024-02-28T20:00:20.728Z,3.70
2024-02-28T20:02:49.312Z,3.65
2024-02-28T20:05:20.316Z,3.62
2024-02-28T20:07:50.683Z,3.58
2024-02-28T20:10:19.430Z,3.52
2024-02-28T20:12:48.176Z,3.51
2024-02-28T20:15:16.327Z,3.51
2024-02-28T20:17:44.542Z,3.47
2024-02-28T20:20:12.841Z,3.43
2024-02-28T20:22:43.185Z,3.46
2024-02-28T20:25:11.667Z,3.50
2024-02-28T20:27:39.890Z,3.52
2024-02-28T20:30:08.909Z,3.56
2024-02-28T20:32:37.341Z,3.61
2024-02-28T20:35:07.906Z,3.63
2024-02-28T20:37:36.427Z,3.67
2024-02-28T20:40:07.466Z,3.69
2024-02-28T20:42:36.892Z,3.70
2024-02-28T20:45:06.905Z,3.71
2024-02-28T20:47:35.160Z,3.64
2024-02-28T20:50:06.217Z,3.62
2024-02-28T20:52:35.127Z,3.63
2024-02-28T20:55:05.099Z,3.67
2024-02-28T20:57:33.621Z,3.66
2024-02-28T21:00:02.371Z,3.65
2024-02-28T21:02:31.268Z,3.70
2024-02-28T21:05:01.393Z,3.61
2024-02-28T21:07:41.122Z,3.54
2024-02-28T21:10:16.780Z,3.51
2024-02-28T21:12:44.991Z,3.48
2024-02-28T21:15:13.217Z,3.40
2024-02-28T21:17:41.915Z,3.38
2024-02-28T21:20:10.499Z,3.28
2024-02-28T21:22:40.854Z,3.22
2024-02-28T21:25:09.343Z,3.22
2024-02-28T21:27:37.834Z,3.20
2024-02-28T21:30:07.632Z,3.12
2024-02-28T21:32:40.380Z,3.06
2024-02-28T21:35:11.779Z,3.04
2024-02-28T21:37:41.118Z,2.98
2024-02-28T21:40:10.249Z,2.92
2024-02-28T21:42:39.284Z,2.94
2024-02-28T21:45:08.162Z,2.97
2024-02-28T21:47:36.622Z,2.96
2024-02-28T21:50:07.146Z,2.95
2024-02-28T21:52:35.386Z,2.93
2024-02-28T21:55:08.358Z,2.88
2024-02-28T21:57:36.730Z,2.83
2024-02-28T22:00:05.507Z,2.78
2024-02-28T22:02:37.507Z,2.79
2024-02-28T22:05:06.180Z,2.79
2024-02-28T22:07:34.703Z,2.78
2024-02-28T22:10:03.326Z,2.74
2024-02-28T22:12:31.609Z,2.72
2024-02-28T22:14:59.772Z,2.70
2024-02-28T22:17:28.033Z,2.67
2024-02-28T22:19:56.246Z,2.67
2024-02-28T22:22:24.371Z,2.69
2024-02-28T22:24:52.588Z,2.72
2024-02-28T22:27:20.889Z,2.79
2024-02-28T22:29:49.484Z,2.93
2024-02-28T22:32:17.755Z,3.06
2024-02-28T22:34:45.931Z,3.15
2024-02-28T22:37:14.574Z,3.07
2024-02-28T22:39:42.821Z,3.18
2024-02-28T22:42:11.083Z,3.32
2024-02-28T22:44:39.299Z,3.44
2024-02-28T22:47:07.522Z,3.43
2024-02-28T22:49:35.753Z,3.47
2024-02-28T22:52:04.378Z,3.55
2024-02-28T22:54:32.823Z,3.64
2024-02-28T22:57:01.207Z,3.65
2024-02-28T22:59:30.194Z,3.53
2024-02-28T23:01:58.569Z,3.51
2024-02-28T23:04:26.941Z,3.54
2024-02-28T23:06:56.755Z,3.53
2024-02-28T23:09:25.169Z,3.46
2024-02-28T23:11:53.328Z,3.40
2024-02-28T23:14:21.548Z,3.35
2024-02-28T23:16:49.698Z,3.31
2024-02-28T23:19:17.836Z,3.27
2024-02-28T23:21:47.409Z,3.21
2024-02-28T23:24:15.994Z,3.14
2024-02-28T23:26:44.205Z,3.11
2024-02-28T23:29:12.339Z,3.12
2024-02-28T23:31:40.583Z,3.13
2024-02-28T23:34:09.415Z,3.09
2024-02-28T23:36:37.801Z,3.05
2024-02-28T23:39:05.950Z,3.00
2024-02-28T23:41:34.783Z,2.98
2024-02-28T23:44:03.090Z,2.98
2024-02-28T23:46:31.318Z,2.98
2024-02-28T23:48:59.449Z,2.88
2024-02-28T23:51:27.670Z,2.84
2024-02-28T23:53:55.842Z,2.81
2024-02-28T23:56:23.997Z,2.78
2024-02-28T23:58:52.122Z,2.74
